createdAt,value
2018-06-03T00:00:11.770Z,51.98
2018-06-03T00:01:21.452Z,52.28
2018-06-03T00:02:30.878Z,51.79
2018-06-03T00:03:40.042Z,52.18
2018-06-03T00:04:49.480Z,52.18
2018-06-03T00:05:58.904Z,51.79
2018-06-03T00:07:08.333Z,51.79
2018-06-03T00:08:17.531Z,51.79
2018-06-03T00:09:26.179Z,52.28
2018-06-03T00:10:35.347Z,51.69
2018-06-03T00:11:44.791Z,51.89
2018-06-03T00:12:54.469Z,51.59
2018-06-03T00:14:03.386Z,51.79
2018-06-03T00:15:13.075Z,51.89
2018-06-03T00:16:22.018Z,51.69
2018-06-03T00:17:31.708Z,51.89
2018-06-03T00:18:41.410Z,51.89
2018-06-03T00:19:50.580Z,51.59
2018-06-03T00:21:00.291Z,51.89
2018-06-03T00:22:09.458Z,51.89
2018-06-03T00:23:19.145Z,51.79
2018-06-03T00:24:28.575Z,51.89
2018-06-03T00:25:37.233Z,51.89
2018-06-03T00:26:46.661Z,51.59
2018-06-03T00:27:56.084Z,51.98
2018-06-03T00:29:05.263Z,51.79
2018-06-03T00:30:14.443Z,51.59
2018-06-03T00:31:23.336Z,51.5
2018-06-03T00:32:32.519Z,51.89
2018-06-03T00:33:41.950Z,51.89
2018-06-03T00:34:51.116Z,52.28
2018-06-03T00:36:00.301Z,51.89
2018-06-03T00:37:09.972Z,51.59
2018-06-03T00:38:19.398Z,51.5
2018-06-03T00:39:29.075Z,51.59
2018-06-03T00:40:38.236Z,51.89
2018-06-03T00:41:47.945Z,51.79
2018-06-03T00:42:57.359Z,51.98
2018-06-03T00:44:06.548Z,51.89
2018-06-03T00:45:15.723Z,51.89
2018-06-03T00:46:25.393Z,51.5
2018-06-03T00:47:34.557Z,51.5
2018-06-03T00:48:43.728Z,51.69
2018-06-03T00:49:52.910Z,51.89
2018-06-03T00:51:02.074Z,51.79
2018-06-03T00:52:11.496Z,51.98
2018-06-03T00:53:21.432Z,51.69
2018-06-03T00:54:31.111Z,51.98
2018-06-03T00:55:40.536Z,52.25
2018-06-03T00:56:49.447Z,51.89
2018-06-03T00:57:58.857Z,51.98
2018-06-03T00:59:08.023Z,52.18
2018-06-03T01:00:17.178Z,51.86
2018-06-03T01:01:26.322Z,51.89
2018-06-03T01:02:35.734Z,51.89
2018-06-03T01:03:44.895Z,51.79
2018-06-03T01:04:54.043Z,51.89
2018-06-03T01:06:03.721Z,51.89
2018-06-03T01:07:13.149Z,51.96
2018-06-03T01:08:22.827Z,51.79
2018-06-03T01:09:32.263Z,52.06
2018-06-03T01:10:41.934Z,51.79
2018-06-03T01:11:51.419Z,51.96
2018-06-03T01:13:00.833Z,51.76
2018-06-03T01:14:09.996Z,51.86
2018-06-03T01:15:18.900Z,51.89
2018-06-03T01:16:28.068Z,51.76
2018-06-03T01:17:37.488Z,51.96
2018-06-03T01:18:47.152Z,51.76
2018-06-03T01:19:56.828Z,51.76
2018-06-03T01:21:06.245Z,51.59
2018-06-03T01:22:15.917Z,51.76
2018-06-03T01:23:25.852Z,51.89
2018-06-03T01:24:35.002Z,51.86
2018-06-03T01:25:44.152Z,51.86
2018-06-03T01:26:53.306Z,51.86
2018-06-03T01:28:02.199Z,51.86
2018-06-03T01:29:11.613Z,51.76
2018-06-03T01:30:21.025Z,51.86
2018-06-03T01:31:30.187Z,51.67
2018-06-03T01:32:39.870Z,51.76
2018-06-03T01:33:49.344Z,51.86
2018-06-03T01:34:59.035Z,51.67
2018-06-03T01:36:08.441Z,51.37
2018-06-03T01:37:18.114Z,51.86
2018-06-03T01:38:27.014Z,51.86
2018-06-03T01:39:36.693Z,51.86
2018-06-03T01:40:45.862Z,51.76
2018-06-03T01:41:55.281Z,51.96
2018-06-03T01:43:04.453Z,51.67
2018-06-03T01:44:13.614Z,51.76
2018-06-03T01:45:23.332Z,51.57
2018-06-03T01:46:32.287Z,51.76
2018-06-03T01:47:41.200Z,52.15
2018-06-03T01:48:50.865Z,51.96
2018-06-03T01:50:00.304Z,51.96
2018-06-03T01:51:09.481Z,51.96
2018-06-03T01:52:19.398Z,52.25
2018-06-03T01:53:29.070Z,52.25
2018-06-03T01:54:38.743Z,51.86
2018-06-03T01:55:48.172Z,51.76
2018-06-03T01:56:57.849Z,51.76
2018-06-03T01:58:07.523Z,51.96
2018-06-03T01:59:17.485Z,52.15
2018-06-03T02:00:26.917Z,51.76
2018-06-03T02:01:36.082Z,51.86
2018-06-03T02:02:44.987Z,51.86
2018-06-03T02:03:54.925Z,51.96
2018-06-03T02:05:04.352Z,51.76
2018-06-03T02:06:13.516Z,51.96
2018-06-03T02:07:22.422Z,52.15
2018-06-03T02:08:32.086Z,51.96
2018-06-03T02:09:41.518Z,51.96
2018-06-03T02:10:50.925Z,52.15
2018-06-03T02:12:00.355Z,51.96
2018-06-03T02:13:09.518Z,52.15
2018-06-03T02:14:19.474Z,52.25
2018-06-03T02:15:29.166Z,52.15
2018-06-03T02:16:39.121Z,52.15
2018-06-03T02:17:48.326Z,52.06
2018-06-03T02:18:57.996Z,52.06
2018-06-03T02:20:07.675Z,52.06
2018-06-03T02:21:17.360Z,52.15
2018-06-03T02:22:26.776Z,51.86
2018-06-03T02:23:36.459Z,52.15
2018-06-03T02:24:45.868Z,51.96
2018-06-03T02:25:55.562Z,52.15
2018-06-03T02:27:04.990Z,52.15
2018-06-03T02:28:13.895Z,52.15
2018-06-03T02:29:23.095Z,52.15
2018-06-03T02:30:32.273Z,52.25
2018-06-03T02:31:41.685Z,52.15
2018-06-03T02:32:50.859Z,52.06
2018-06-03T02:34:00.283Z,52.15
2018-06-03T02:35:09.199Z,52.15
2018-06-03T02:36:19.153Z,52.15
2018-06-03T02:37:29.124Z,52.15
2018-06-03T02:38:38.561Z,51.86
2018-06-03T02:39:48.245Z,52.25
2018-06-03T02:40:57.938Z,51.76
2018-06-03T02:42:07.355Z,52.15
2018-06-03T02:43:15.996Z,52.15
2018-06-03T02:46:58.268Z,52.06
2018-06-03T02:50:40.343Z,51.76
2018-06-03T02:51:49.524Z,51.86
2018-06-03T02:52:59.197Z,52.06
2018-06-03T02:54:08.628Z,51.86
2018-06-03T02:55:18.090Z,51.96
2018-06-03T02:56:28.051Z,51.86
2018-06-03T02:57:37.982Z,51.86
2018-06-03T02:58:47.672Z,51.96
2018-06-03T03:02:30.976Z,52.06
2018-06-03T03:03:40.139Z,52.06
2018-06-03T03:04:49.307Z,52.06
2018-06-03T03:05:58.772Z,51.96
2018-06-03T03:07:08.184Z,51.96
2018-06-03T03:08:17.865Z,52.06
2018-06-03T03:09:27.627Z,52.06
2018-06-03T03:10:36.803Z,52.06
2018-06-03T03:11:46.506Z,51.96
2018-06-03T03:12:56.201Z,51.96
2018-06-03T03:14:05.099Z,51.86
2018-06-03T03:15:14.771Z,52.06
2018-06-03T03:16:24.720Z,52.06
2018-06-03T03:17:34.140Z,52.06
2018-06-03T03:18:43.567Z,52.06
2018-06-03T03:19:52.720Z,52.06
2018-06-03T03:21:01.905Z,52.06
2018-06-03T03:22:11.589Z,52.06
2018-06-03T03:23:21.536Z,52.06
2018-06-03T03:24:31.234Z,52.06
2018-06-03T03:25:40.911Z,52.06
2018-06-03T03:26:49.819Z,52.06
2018-06-03T03:27:59.497Z,52.06
2018-06-03T03:29:08.671Z,52.06
2018-06-03T03:30:18.338Z,52.06
2018-06-03T03:31:28.024Z,52.06
2018-06-03T03:32:37.487Z,52.06
2018-06-03T03:33:47.168Z,52.06
2018-06-03T03:34:56.860Z,52.06
2018-06-03T03:36:06.290Z,51.96
2018-06-03T03:37:16.215Z,52.06
2018-06-03T03:38:25.391Z,52.06
2018-06-03T03:39:34.635Z,51.96
2018-06-03T03:40:44.061Z,52.15
2018-06-03T03:41:54.020Z,52.06
2018-06-03T03:43:03.473Z,52.06
2018-06-03T03:44:12.629Z,51.96
2018-06-03T03:45:22.051Z,52.15
2018-06-03T03:46:31.226Z,52.06
2018-06-03T03:47:40.393Z,52.25
2018-06-03T03:48:49.570Z,52.15
2018-06-03T03:49:58.734Z,51.96
2018-06-03T03:51:08.152Z,51.96
2018-06-03T03:52:17.317Z,51.96
2018-06-03T03:53:26.469Z,51.96
2018-06-03T03:54:35.639Z,51.96
2018-06-03T03:55:44.795Z,51.96
2018-06-03T03:56:54.726Z,52.06
2018-06-03T03:58:03.896Z,51.96
2018-06-03T03:59:13.058Z,51.96
2018-06-03T04:00:22.254Z,51.96
2018-06-03T04:01:31.693Z,51.96
2018-06-03T04:02:41.125Z,51.86
2018-06-03T04:03:50.055Z,52.06
2018-06-03T04:04:59.212Z,51.96
2018-06-03T04:06:08.666Z,51.76
2018-06-03T04:07:17.831Z,51.96
2018-06-03T04:08:27.768Z,51.86
2018-06-03T04:09:36.965Z,51.86
2018-06-03T04:10:46.181Z,52.06
2018-06-03T04:11:55.594Z,52.06
2018-06-03T04:13:05.011Z,51.96
2018-06-03T04:14:15.096Z,52.06
2018-06-03T04:15:24.280Z,52.06
2018-06-03T04:16:33.439Z,51.96
2018-06-03T04:17:43.134Z,51.86
2018-06-03T04:18:52.805Z,51.96
2018-06-03T04:20:01.740Z,52.06
2018-06-03T04:21:10.909Z,52.15
2018-06-03T04:22:20.086Z,51.96
2018-06-03T04:23:29.508Z,52.25
2018-06-03T04:24:38.661Z,52.25
2018-06-03T04:25:48.096Z,51.96
2018-06-03T04:26:57.542Z,51.96
2018-06-03T04:28:06.972Z,52.06
2018-06-03T04:29:16.664Z,52.06
2018-06-03T04:30:25.835Z,51.96
2018-06-03T04:31:35.500Z,52.06
2018-06-03T04:32:45.455Z,52.06
2018-06-03T04:33:54.638Z,51.96
2018-06-03T04:35:03.838Z,52.06
2018-06-03T04:36:12.772Z,52.06
2018-06-03T04:37:21.932Z,52.06
2018-06-03T04:38:31.351Z,51.96
2018-06-03T04:39:40.529Z,52.15
2018-06-03T04:40:49.187Z,52.06
2018-06-03T04:41:58.356Z,52.15
2018-06-03T04:43:07.532Z,52.25
2018-06-03T04:44:16.952Z,52.15
2018-06-03T04:45:26.366Z,52.06
2018-06-03T04:46:35.538Z,52.15
2018-06-03T04:47:45.238Z,51.76
2018-06-03T04:48:54.394Z,52.15
2018-06-03T04:50:03.567Z,52.25
2018-06-03T04:51:12.225Z,52.25
2018-06-03T04:52:21.913Z,51.96
2018-06-03T04:53:30.817Z,52.15
2018-06-03T04:54:40.238Z,52.15
2018-06-03T04:55:49.400Z,51.74
2018-06-03T04:56:58.564Z,51.93
2018-06-03T04:58:08.009Z,52.15
2018-06-03T04:59:17.442Z,52.12
2018-06-03T05:00:26.872Z,52.12
2018-06-03T05:01:36.293Z,51.96
2018-06-03T05:02:45.719Z,51.96
2018-06-03T05:03:54.937Z,51.93
2018-06-03T05:05:04.621Z,52.06
2018-06-03T05:06:14.309Z,51.76
2018-06-03T05:07:23.453Z,51.96
2018-06-03T05:08:32.614Z,51.96
2018-06-03T05:09:42.306Z,52.03
2018-06-03T05:10:50.949Z,52.06
2018-06-03T05:12:00.133Z,52.03
2018-06-03T05:13:09.879Z,52.03
2018-06-03T05:14:19.038Z,52.03
2018-06-03T05:15:28.201Z,51.64
2018-06-03T05:16:37.622Z,51.67
2018-06-03T05:17:47.049Z,52.03
2018-06-03T05:18:56.227Z,52.03
2018-06-03T05:20:05.634Z,52.03
2018-06-03T05:21:15.316Z,52.03
2018-06-03T05:22:24.733Z,51.76
2018-06-03T05:23:34.011Z,51.67
2018-06-03T05:24:43.445Z,51.74
2018-06-03T05:25:52.874Z,52.06
2018-06-03T05:27:02.901Z,51.74
2018-06-03T05:28:12.362Z,52.03
2018-06-03T05:29:21.792Z,52.03
2018-06-03T05:30:31.224Z,51.64
2018-06-03T05:31:40.380Z,51.74
2018-06-03T05:32:49.535Z,51.74
2018-06-03T05:33:58.451Z,51.74
2018-06-03T05:35:08.402Z,51.67
2018-06-03T05:36:17.824Z,51.64
2018-06-03T05:37:27.020Z,51.93
2018-06-03T05:38:36.160Z,51.93
2018-06-03T05:39:45.568Z,51.76
2018-06-03T05:40:54.486Z,51.93
2018-06-03T05:42:03.702Z,52.03
2018-06-03T05:43:13.112Z,51.96
2018-06-03T05:44:22.536Z,52.03
2018-06-03T05:45:31.437Z,51.86
2018-06-03T05:46:40.850Z,52.03
2018-06-03T05:47:50.018Z,52.06
2018-06-03T05:48:59.438Z,51.84
2018-06-03T05:50:08.346Z,51.76
2018-06-03T05:51:18.301Z,52.12
2018-06-03T05:52:27.224Z,52.15
2018-06-03T05:53:36.415Z,52.03
2018-06-03T05:54:47.032Z,52.12
2018-06-03T05:55:56.955Z,52.12
2018-06-03T05:57:06.375Z,52.15
2018-06-03T05:58:15.267Z,51.76
2018-06-03T05:59:24.168Z,52.12
2018-06-03T06:00:33.336Z,51.86
2018-06-03T06:01:42.233Z,52.15
2018-06-03T06:02:51.937Z,52.25
2018-06-03T06:04:01.097Z,52.12
2018-06-03T06:05:10.317Z,52.03
2018-06-03T06:06:19.223Z,52.15
2018-06-03T06:07:28.896Z,52.03
2018-06-03T06:08:38.050Z,52.15
2018-06-03T06:09:47.193Z,52.25
2018-06-03T06:10:56.613Z,51.76
2018-06-03T06:12:05.517Z,52.06
2018-06-03T06:13:14.688Z,52.06
2018-06-03T06:14:24.102Z,52.15
2018-06-03T06:15:33.533Z,52.15
2018-06-03T06:16:42.689Z,52.15
2018-06-03T06:17:52.367Z,52.15
2018-06-03T06:19:01.775Z,52.15
2018-06-03T06:20:11.299Z,52.15
2018-06-03T06:21:20.829Z,52.25
2018-06-03T06:22:30.521Z,52.15
2018-06-03T06:23:40.735Z,52.25
2018-06-03T06:24:49.915Z,52.15
2018-06-03T06:25:59.612Z,52.06
2018-06-03T06:27:09.018Z,52.22
2018-06-03T06:28:18.455Z,52.15
2018-06-03T06:29:28.032Z,52.06
2018-06-03T06:30:37.555Z,51.76
2018-06-03T06:31:46.472Z,52.15
2018-06-03T06:32:55.879Z,52.15
2018-06-03T06:34:05.028Z,52.06
2018-06-03T06:35:14.721Z,52.15
2018-06-03T06:36:24.553Z,52.06
2018-06-03T06:37:34.760Z,51.74
2018-06-03T06:38:43.931Z,52.15
2018-06-03T06:39:53.345Z,51.96
2018-06-03T06:41:02.534Z,51.76
2018-06-03T06:42:11.940Z,52.15
2018-06-03T06:43:21.083Z,51.86
2018-06-03T06:44:30.528Z,52.15
2018-06-03T06:45:40.250Z,52.25
2018-06-03T06:46:49.928Z,52.06
2018-06-03T06:47:59.609Z,52.15
2018-06-03T06:49:09.044Z,52.15
2018-06-03T06:50:18.459Z,51.96
2018-06-03T06:51:28.130Z,52.25
2018-06-03T06:52:37.046Z,52.15
2018-06-03T06:53:46.461Z,52.15
2018-06-03T06:54:56.149Z,52.25
2018-06-03T06:56:05.305Z,52.25
2018-06-03T06:57:14.759Z,52.15
2018-06-03T06:58:24.521Z,52.25
2018-06-03T06:59:34.278Z,52.25
2018-06-03T07:00:43.196Z,52.06
2018-06-03T07:01:52.386Z,52.15
2018-06-03T07:03:02.075Z,52.15
2018-06-03T07:04:11.308Z,52.25
2018-06-03T07:05:20.218Z,52.15
2018-06-03T07:06:30.535Z,52.06
2018-06-03T07:07:40.864Z,51.96
2018-06-03T07:08:50.284Z,51.76
2018-06-03T07:09:59.983Z,51.86
2018-06-03T07:11:10.128Z,51.96
2018-06-03T07:12:19.116Z,52.15
2018-06-03T07:13:29.230Z,51.96
2018-06-03T07:14:38.703Z,51.76
2018-06-03T07:15:48.864Z,51.96
2018-06-03T07:16:58.876Z,51.96
2018-06-03T07:18:08.867Z,51.96
2018-06-03T07:19:18.409Z,51.96
2018-06-03T07:20:27.893Z,51.96
2018-06-03T07:21:37.575Z,52.06
2018-06-03T07:22:47.172Z,51.76
2018-06-03T07:23:56.350Z,52.06
2018-06-03T07:25:06.045Z,52.06
2018-06-03T07:26:15.214Z,52.06
2018-06-03T07:27:24.744Z,52.06
2018-06-03T07:28:35.008Z,51.76
2018-06-03T07:29:44.477Z,51.67
2018-06-03T07:30:53.903Z,51.76
2018-06-03T07:32:03.399Z,51.76
2018-06-03T07:33:13.651Z,51.76
2018-06-03T07:34:23.105Z,51.86
2018-06-03T07:35:32.542Z,51.76
2018-06-03T07:36:41.510Z,51.76
2018-06-03T07:37:51.010Z,51.86
2018-06-03T07:39:00.939Z,51.86
2018-06-03T07:40:10.351Z,51.86
2018-06-03T07:41:19.768Z,51.76
2018-06-03T07:42:29.438Z,52.15
2018-06-03T07:43:38.896Z,51.86
2018-06-03T07:44:48.071Z,51.96
2018-06-03T07:45:57.760Z,51.76
2018-06-03T07:47:07.239Z,51.86
2018-06-03T07:48:16.931Z,51.76
2018-06-03T07:49:26.596Z,52.06
2018-06-03T07:50:36.026Z,52.06
2018-06-03T07:51:45.716Z,51.76
2018-06-03T07:52:55.128Z,52.06
2018-06-03T07:54:04.596Z,51.76
2018-06-03T07:55:13.754Z,52.06
2018-06-03T07:56:22.650Z,52.06
2018-06-03T07:57:31.565Z,51.76
2018-06-03T07:58:40.989Z,52.06
2018-06-03T07:59:50.143Z,51.76
2018-06-03T08:00:59.303Z,51.86
2018-06-03T08:02:08.725Z,51.76
2018-06-03T08:03:17.903Z,51.67
2018-06-03T08:04:27.330Z,51.76
2018-06-03T08:05:36.646Z,51.76
2018-06-03T08:06:46.319Z,51.86
2018-06-03T08:07:55.984Z,51.86
2018-06-03T08:09:05.717Z,51.76
2018-06-03T08:10:15.659Z,51.76
2018-06-03T08:11:25.091Z,51.76
2018-06-03T08:12:34.505Z,51.76
2018-06-03T08:13:44.330Z,51.76
2018-06-03T08:14:54.437Z,52.06
2018-06-03T08:16:04.173Z,52.06
2018-06-03T08:17:13.339Z,52.06
2018-06-03T08:18:23.009Z,51.96
2018-06-03T08:19:32.443Z,52.06
2018-06-03T08:20:41.865Z,51.96
2018-06-03T08:21:51.807Z,51.86
2018-06-03T08:23:01.228Z,51.96
2018-06-03T08:24:10.673Z,52.15
2018-06-03T08:25:19.576Z,52.06
2018-06-03T08:26:28.999Z,52.15
2018-06-03T08:27:38.487Z,52.15
2018-06-03T08:28:48.165Z,52.15
2018-06-03T08:29:57.740Z,52.25
2018-06-03T08:31:07.180Z,52.15
2018-06-03T08:32:16.078Z,52.06
2018-06-03T08:33:25.482Z,51.96
2018-06-03T08:34:35.162Z,51.96
2018-06-03T08:35:45.092Z,52.15
2018-06-03T08:36:53.987Z,51.96
2018-06-03T08:38:03.148Z,52.15
2018-06-03T08:39:12.343Z,51.96
2018-06-03T08:40:22.205Z,51.96
2018-06-03T08:41:31.624Z,52.15
2018-06-03T08:42:40.796Z,51.86
2018-06-03T08:43:50.215Z,52.06
2018-06-03T08:44:59.644Z,52.15
2018-06-03T08:46:09.583Z,51.96
2018-06-03T08:47:19.306Z,52.06
2018-06-03T08:48:28.538Z,51.96
2018-06-03T08:49:38.651Z,51.96
2018-06-03T08:50:48.320Z,51.96
2018-06-03T08:51:57.758Z,51.96
2018-06-03T08:53:06.966Z,52.06
2018-06-03T08:54:16.888Z,51.96
2018-06-03T08:55:26.569Z,51.86
2018-06-03T08:56:35.987Z,52.06
2018-06-03T08:57:45.930Z,52.15
2018-06-03T08:58:55.616Z,52.06
2018-06-03T09:00:05.292Z,51.76
2018-06-03T09:01:14.734Z,51.86
2018-06-03T09:02:23.637Z,51.47
2018-06-03T09:03:33.330Z,51.47
2018-06-03T09:04:42.494Z,51.28
2018-06-03T09:05:52.183Z,51.57
2018-06-03T09:07:01.821Z,51.28
2018-06-03T09:08:10.932Z,51.67
2018-06-03T09:09:20.108Z,51.67
2018-06-03T09:10:29.033Z,51.67
2018-06-03T09:11:37.940Z,51.67
2018-06-03T09:12:47.622Z,51.67
2018-06-03T09:13:57.567Z,51.67
2018-06-03T09:15:07.269Z,51.57
2018-06-03T09:16:16.709Z,51.67
2018-06-03T09:17:25.612Z,51.57
2018-06-03T09:18:35.042Z,51.47
2018-06-03T09:19:44.648Z,51.47
2018-06-03T09:20:54.331Z,51.47
2018-06-03T09:22:03.483Z,51.47
2018-06-03T09:23:12.912Z,51.67
2018-06-03T09:24:22.287Z,51.57
2018-06-03T09:25:31.708Z,51.47
2018-06-03T09:26:41.012Z,51.18
2018-06-03T09:27:50.440Z,51.47
2018-06-03T09:29:00.480Z,51.57
2018-06-03T09:30:10.472Z,51.47
2018-06-03T09:31:19.890Z,51.57
2018-06-03T09:32:29.518Z,51.57
2018-06-03T09:33:38.774Z,51.57
2018-06-03T09:34:47.926Z,51.09
2018-06-03T09:35:57.354Z,51.37
2018-06-03T09:37:06.414Z,51.57
2018-06-03T09:38:15.733Z,51.47
2018-06-03T09:39:25.456Z,51.47
2018-06-03T09:40:34.723Z,51.57
2018-06-03T09:41:44.311Z,51.59
2018-06-03T09:42:54.168Z,51.5
2018-06-03T09:44:04.382Z,51.4
2018-06-03T09:45:14.060Z,51.4
2018-06-03T09:46:23.740Z,51.18
2018-06-03T09:47:33.743Z,51.11
2018-06-03T09:48:43.058Z,51.11
2018-06-03T09:49:52.997Z,51.11
2018-06-03T09:51:02.678Z,51.57
2018-06-03T09:52:12.089Z,51.5
2018-06-03T09:53:21.092Z,51.21
2018-06-03T09:54:30.404Z,51.5
2018-06-03T09:55:39.829Z,51.59
2018-06-03T09:56:50.503Z,51.31
2018-06-03T09:58:00.254Z,51.31
2018-06-03T09:59:09.465Z,51.59
2018-06-03T10:00:18.985Z,51.4
2018-06-03T10:01:28.142Z,51.69
2018-06-03T10:02:38.083Z,51.69
2018-06-03T10:03:48.032Z,51.21
2018-06-03T10:04:57.215Z,51.69
2018-06-03T10:06:06.033Z,51.69
2018-06-03T10:07:16.161Z,51.59
2018-06-03T10:08:25.072Z,51.69
2018-06-03T10:09:34.270Z,51.69
2018-06-03T10:10:44.186Z,51.21
2018-06-03T10:11:53.871Z,51.21
2018-06-03T10:13:03.319Z,51.69
2018-06-03T10:14:12.518Z,51.69
2018-06-03T10:15:21.434Z,51.21
2018-06-03T10:16:31.137Z,51.21
2018-06-03T10:17:40.824Z,51.21
2018-06-03T10:18:50.252Z,51.69
2018-06-03T10:19:59.926Z,51.59
2018-06-03T10:21:10.131Z,51.79
2018-06-03T10:22:19.323Z,51.79
2018-06-03T10:23:28.752Z,51.79
2018-06-03T10:24:38.459Z,51.5
2018-06-03T10:25:48.128Z,51.5
2018-06-03T10:26:57.830Z,51.5
2018-06-03T10:28:07.033Z,51.69
2018-06-03T10:29:16.458Z,51.5
2018-06-03T10:30:25.872Z,51.5
2018-06-03T10:31:35.032Z,51.59
2018-06-03T10:32:44.456Z,51.69
2018-06-03T10:33:53.366Z,51.31
2018-06-03T10:35:02.262Z,51.5
2018-06-03T10:36:11.429Z,51.59
2018-06-03T10:37:20.872Z,51.79
2018-06-03T10:38:30.572Z,51.79
2018-06-03T10:39:40.003Z,52.28
2018-06-03T10:40:49.939Z,52.18
2018-06-03T10:41:59.100Z,52.18
2018-06-03T10:43:08.256Z,52.08
2018-06-03T10:44:17.481Z,52.18
2018-06-03T10:45:26.375Z,51.79
2018-06-03T10:46:35.543Z,52.18
2018-06-03T10:47:44.970Z,52.18
2018-06-03T10:48:54.373Z,51.69
2018-06-03T10:50:04.054Z,51.89
2018-06-03T10:51:14.010Z,52.08
2018-06-03T10:52:23.174Z,52.08
2018-06-03T10:53:32.605Z,51.98
2018-06-03T10:54:42.021Z,51.89
2018-06-03T10:55:51.463Z,52.08
2018-06-03T10:57:01.193Z,52.08
2018-06-03T10:58:10.912Z,52.08
2018-06-03T10:59:20.600Z,51.98
2018-06-03T11:00:30.019Z,52.08
2018-06-03T11:01:39.486Z,52.08
2018-06-03T11:02:48.882Z,52.08
2018-06-03T11:03:58.164Z,52.08
2018-06-03T11:05:07.858Z,52.08
2018-06-03T11:06:17.305Z,52.08
2018-06-03T11:07:26.754Z,52.08
2018-06-03T11:08:35.937Z,51.98
2018-06-03T11:09:45.350Z,52.08
2018-06-03T11:10:54.779Z,51.98
2018-06-03T11:12:04.213Z,52.08
2018-06-03T11:13:13.375Z,52.08
2018-06-03T11:14:23.410Z,51.98
2018-06-03T11:15:33.399Z,51.98
2018-06-03T11:16:43.134Z,51.98
2018-06-03T11:17:52.900Z,52.08
2018-06-03T11:19:02.602Z,51.89
2018-06-03T11:20:12.260Z,52.08
2018-06-03T11:21:22.037Z,52.08
2018-06-03T11:22:31.455Z,51.98
2018-06-03T11:23:41.201Z,51.98
2018-06-03T11:24:50.638Z,51.89
2018-06-03T11:25:59.797Z,52.08
2018-06-03T11:27:08.496Z,51.98
2018-06-03T11:28:17.950Z,52.08
2018-06-03T11:29:27.495Z,51.89
2018-06-03T11:30:37.213Z,51.98
2018-06-03T11:31:46.380Z,52.08
2018-06-03T11:32:55.832Z,52.08
2018-06-03T11:34:04.806Z,51.98
2018-06-03T11:35:14.253Z,52.08
2018-06-03T11:36:23.678Z,51.98
2018-06-03T11:37:33.099Z,52.08
2018-06-03T11:38:43.034Z,51.98
2018-06-03T11:39:52.213Z,51.98
2018-06-03T11:41:01.642Z,52.08
2018-06-03T11:42:10.541Z,51.98
2018-06-03T11:43:19.956Z,52.08
2018-06-03T11:44:29.108Z,52.08
2018-06-03T11:45:38.269Z,52.08
2018-06-03T11:46:47.725Z,51.98
2018-06-03T11:47:56.888Z,52.08
2018-06-03T11:49:06.558Z,52.08
2018-06-03T11:50:15.977Z,51.98
2018-06-03T11:51:25.447Z,52.08
2018-06-03T11:52:34.926Z,51.98
2018-06-03T11:53:43.895Z,51.98
2018-06-03T11:54:53.989Z,52.08
2018-06-03T11:56:03.414Z,52.08
2018-06-03T11:57:12.873Z,52.08
2018-06-03T11:58:22.556Z,52.08
2018-06-03T11:59:32.497Z,52.08
2018-06-03T12:00:41.154Z,52.08
2018-06-03T12:01:50.989Z,52.18
2018-06-03T12:03:01.092Z,52.08
2018-06-03T12:04:10.565Z,51.89
2018-06-03T12:05:20.000Z,51.98
2018-06-03T12:06:29.177Z,51.89
2018-06-03T12:07:38.865Z,52.08
2018-06-03T12:08:48.271Z,51.98
2018-06-03T12:09:58.203Z,51.89
2018-06-03T12:11:07.876Z,52.28
2018-06-03T12:12:17.546Z,52.08
2018-06-03T12:13:27.218Z,52.08
2018-06-03T12:14:36.123Z,52.08
2018-06-03T12:15:45.812Z,52.28
2018-06-03T12:16:55.498Z,52.08
2018-06-03T12:18:04.662Z,52.08
2018-06-03T12:19:13.840Z,51.89
2018-06-03T12:20:23.519Z,51.89
2018-06-03T12:21:32.686Z,52.18
2018-06-03T12:22:41.848Z,52.28
2018-06-03T12:23:51.283Z,51.98
2018-06-03T12:25:00.698Z,51.89
2018-06-03T12:26:09.589Z,51.69
2018-06-03T12:27:19.248Z,51.98
2018-06-03T12:28:28.757Z,51.98
2018-06-03T12:29:38.772Z,52.28
2018-06-03T12:30:47.933Z,51.79
2018-06-03T12:31:57.362Z,52.28
2018-06-03T12:33:07.048Z,51.89
2018-06-03T12:34:16.447Z,52.28
2018-06-03T12:35:25.605Z,51.69
2018-06-03T12:36:35.056Z,51.98
2018-06-03T12:37:44.517Z,51.98
2018-06-03T12:38:54.449Z,51.79
2018-06-03T12:40:03.881Z,51.79
2018-06-03T12:41:13.568Z,51.89
2018-06-03T12:42:22.728Z,51.98
2018-06-03T12:43:31.911Z,52.08
2018-06-03T12:44:41.611Z,51.69
2018-06-03T12:45:50.825Z,51.89
2018-06-03T12:47:00.273Z,51.98
2018-06-03T12:48:09.722Z,51.98
2018-06-03T12:49:18.616Z,51.98
2018-06-03T12:50:27.511Z,51.89
2018-06-03T12:51:36.930Z,51.79
2018-06-03T12:52:45.875Z,51.79
2018-06-03T12:53:54.786Z,51.98
2018-06-03T12:55:03.965Z,52.18
2018-06-03T12:56:13.133Z,51.69
2018-06-03T12:57:22.806Z,51.69
2018-06-03T12:58:31.978Z,51.5
2018-06-03T12:59:41.131Z,51.59
2018-06-03T13:00:50.537Z,51.59
2018-06-03T13:01:59.966Z,51.79
2018-06-03T13:03:09.373Z,51.69
2018-06-03T13:04:19.153Z,51.69
2018-06-03T13:05:28.323Z,51.5
2018-06-03T13:06:37.493Z,51.59
2018-06-03T13:07:46.734Z,51.69
2018-06-03T13:08:56.414Z,51.5
2018-06-03T13:10:05.589Z,51.79
2018-06-03T13:11:15.021Z,51.89
2018-06-03T13:12:24.465Z,51.59
2018-06-03T13:13:34.160Z,51.69
2018-06-03T13:14:43.073Z,51.89
2018-06-03T13:15:52.252Z,51.89
2018-06-03T13:17:01.691Z,51.69
2018-06-03T13:18:11.770Z,51.5
2018-06-03T13:19:21.016Z,51.69
2018-06-03T13:20:30.216Z,51.59
2018-06-03T13:21:39.485Z,51.59
2018-06-03T13:22:49.173Z,51.59
2018-06-03T13:23:58.369Z,51.59
2018-06-03T13:25:07.271Z,51.69
2018-06-03T13:26:16.452Z,51.69
2018-06-03T13:27:25.904Z,51.5
2018-06-03T13:28:35.067Z,51.5
2018-06-03T13:29:44.125Z,51.5
2018-06-03T13:30:53.860Z,51.69
2018-06-03T13:32:04.468Z,51.79
2018-06-03T13:33:13.947Z,51.69
2018-06-03T13:34:23.491Z,51.43
2018-06-03T13:35:32.823Z,51.4
2018-06-03T13:36:42.315Z,51.43
2018-06-03T13:37:51.876Z,51.62
2018-06-03T13:39:01.403Z,51.62
2018-06-03T13:40:10.880Z,51.62
2018-06-03T13:41:20.419Z,51.23
2018-06-03T13:42:29.606Z,51.53
2018-06-03T13:43:39.103Z,51.53
2018-06-03T13:44:48.147Z,51.33
2018-06-03T13:45:58.113Z,51.53
2018-06-03T13:47:07.398Z,51.53
2018-06-03T13:48:17.107Z,51.33
2018-06-03T13:49:26.608Z,51.62
2018-06-03T13:50:36.627Z,51.53
2018-06-03T13:51:45.676Z,51.14
2018-06-03T13:52:55.133Z,51.62
2018-06-03T13:54:04.866Z,51.62
2018-06-03T13:55:14.925Z,51.14
2018-06-03T13:56:25.155Z,51.62
2018-06-03T13:57:34.651Z,51.14
2018-06-03T13:58:44.878Z,51.23
2018-06-03T13:59:54.353Z,51.23
2018-06-03T14:02:12.881Z,51.33
2018-06-03T14:03:22.327Z,51.33
2018-06-03T14:04:31.818Z,51.23
2018-06-03T14:05:40.755Z,51.33
2018-06-03T14:06:50.204Z,51.23
2018-06-03T14:07:59.646Z,51.33
2018-06-03T14:09:09.078Z,51.23
2018-06-03T14:10:18.504Z,51.53
2018-06-03T14:11:27.940Z,51.53
2018-06-03T14:12:37.919Z,51.53
2018-06-03T14:13:47.080Z,51.33
2018-06-03T14:14:55.995Z,51.43
2018-06-03T14:16:05.190Z,51.23
2018-06-03T14:17:14.390Z,51.53
2018-06-03T14:18:23.816Z,51.23
2018-06-03T14:19:33.143Z,51.26
2018-06-03T14:20:42.581Z,51.53
2018-06-03T14:21:51.507Z,51.53
2018-06-03T14:23:00.699Z,51.53
2018-06-03T14:24:09.591Z,51.14
2018-06-03T14:25:19.043Z,51.23
2018-06-03T14:26:28.584Z,51.33
2018-06-03T14:27:38.262Z,51.33
2018-06-03T14:28:47.462Z,51.26
2018-06-03T14:29:56.663Z,51.04
2018-06-03T14:31:05.567Z,51.62
2018-06-03T14:32:15.035Z,51.35
2018-06-03T14:33:24.719Z,51.65
2018-06-03T14:34:33.742Z,51.62
2018-06-03T14:35:43.416Z,51.26
2018-06-03T14:36:52.951Z,51.33
2018-06-03T14:38:01.865Z,51.43
2018-06-03T14:39:11.042Z,51.81
2018-06-03T14:40:19.950Z,51.81
2018-06-03T14:41:29.383Z,51.72
2018-06-03T14:42:38.810Z,51.62
2018-06-03T14:43:48.221Z,51.72
2018-06-03T14:44:57.403Z,51.81
2018-06-03T14:46:06.039Z,51.53
2018-06-03T14:47:15.190Z,51.91
2018-06-03T14:48:24.357Z,52.11
2018-06-03T14:49:33.784Z,52.2
2018-06-03T14:50:42.608Z,51.81
2018-06-03T14:51:51.612Z,52.11
2018-06-03T14:53:00.776Z,52.11
2018-06-03T14:54:09.689Z,52.11
2018-06-03T14:55:19.369Z,52.11
2018-06-03T14:56:28.281Z,52.3
2018-06-03T14:57:37.214Z,52.01
2018-06-03T14:58:46.842Z,52.11
2018-06-03T14:59:56.309Z,52.11
2018-06-03T15:01:05.288Z,52.3
2018-06-03T15:02:14.716Z,52.11
2018-06-03T15:03:24.397Z,52.11